Time;durP1;ratioP1;P1;durP2;ratioP2;P2;SDS_P1;SDS_P2;PMS_P1;PMS_P2;Temp;Humidity;BMP_temperature;BMP_pressure;BME280_temperature;BME280_humidity;BME280_pressure;Samples;Min_cycle;Max_cycle;Signal;HPM_P1;HPM_P2
2021/05/19 00:00:54;;;;;;;1.00;0.68;;;;;;;12.86;100.00;99059.67;1745842;81;21091;-43
2021/05/19 00:03:21;;;;;;;1.85;1.75;;;;;;;12.82;100.00;99061.45;1749838;81;21042;-46
2021/05/19 00:05:48;;;;;;;1.25;1.12;;;;;;;12.77;100.00;99061.63;1748347;81;21066;-47
2021/05/19 00:08:15;;;;;;;0.90;0.70;;;;;;;12.73;100.00;99058.50;1745067;81;21069;-47
2021/05/19 00:10:41;;;;;;;1.17;0.98;;;;;;;12.68;100.00;99060.84;1742120;81;21084;-47
2021/05/19 00:13:08;;;;;;;0.75;0.75;;;;;;;12.62;100.00;99059.43;1716464;82;21859;-42
2021/05/19 00:15:36;;;;;;;2.92;0.98;;;;;;;12.55;100.00;99059.12;1726904;82;21043;-42
2021/05/19 00:18:04;;;;;;;1.87;1.17;;;;;;;12.47;100.00;99064.30;1748792;81;21023;-42
2021/05/19 00:20:32;;;;;;;3.02;0.70;;;;;;;12.40;100.00;99072.20;1748263;81;21047;-41
2021/05/19 00:22:59;;;;;;;1.05;0.82;;;;;;;12.34;100.00;99065.84;1750422;81;21026;-46
2021/05/19 00:25:25;;;;;;;0.78;0.78;;;;;;;12.28;100.00;99072.05;1747721;81;21162;-45
2021/05/19 00:27:53;;;;;;;0.95;0.85;;;;;;;12.23;100.00;99066.75;1747285;81;21050;-47
2021/05/19 00:30:21;;;;;;;0.60;0.60;;;;;;;12.18;100.00;99062.23;1750353;81;21077;-47
2021/05/19 00:32:47;;;;;;;0.40;0.40;;;;;;;12.14;100.00;99068.68;1748272;81;21078;-47
2021/05/19 00:35:14;;;;;;;0.75;0.75;;;;;;;12.09;100.00;99066.94;1749786;81;21153;-41
2021/05/19 00:37:41;;;;;;;0.35;0.35;;;;;;;12.06;100.00;99063.45;1736454;81;21054;-47
2021/05/19 00:40:09;;;;;;;0.65;0.62;;;;;;;12.03;100.00;99056.69;1747363;81;21058;-46
2021/05/19 00:42:36;;;;;;;1.60;1.27;;;;;;;12.00;100.00;99059.28;1744696;81;21042;-42
2021/05/19 00:45:08;;;;;;;0.30;0.30;;;;;;;11.97;100.00;99058.56;1747174;80;21042;-42
2021/05/19 00:47:38;;;;;;;1.92;1.12;;;;;;;11.93;100.00;99061.13;1745569;81;21185;-46
2021/05/19 00:50:06;;;;;;;1.62;0.93;;;;;;;11.89;100.00;99061.52;1750270;81;21581;-43
2021/05/19 00:52:33;;;;;;;0.33;0.33;;;;;;;11.83;100.00;99059.48;1750692;81;21078;-47
2021/05/19 00:54:59;;;;;;;0.65;0.53;;;;;;;11.79;100.00;99063.17;1707202;83;20981;-42
2021/05/19 00:57:26;;;;;;;0.30;0.30;;;;;;;11.69;100.00;99062.13;1746363;81;21051;-46
2021/05/19 00:59:53;;;;;;;0.40;0.40;;;;;;;11.60;100.00;99060.77;1745269;81;21061;-47
2021/05/19 01:02:21;;;;;;;0.85;0.80;;;;;;;11.53;100.00;99059.86;1737568;81;21046;-42
2021/05/19 01:04:48;;;;;;;0.10;0.10;;;;;;;11.48;100.00;99062.75;1704896;83;21067;-42
2021/05/19 01:07:27;;;;;;;1.10;1.00;;;;;;;11.44;100.00;99060.40;1710518;82;21077;-45
2021/05/19 01:09:53;;;;;;;0.98;0.62;;;;;;;11.38;100.00;99062.48;1718704;82;21042;-41
2021/05/19 01:12:22;;;;;;;1.52;0.62;;;;;;;11.34;100.00;99064.80;1686592;83;21047;-41
2021/05/19 01:14:49;;;;;;;0.30;0.30;;;;;;;11.29;100.00;99064.95;1705296;83;21043;-47
2021/05/19 01:17:16;;;;;;;0.50;0.50;;;;;;;11.25;100.00;99067.53;1704350;83;21627;-41
2021/05/19 01:19:46;;;;;;;1.10;0.62;;;;;;;11.21;100.00;99064.37;1683812;83;21028;-47
2021/05/19 01:22:28;;;;;;;0.70;0.70;;;;;;;11.14;100.00;99062.89;1749742;81;21225;-41
2021/05/19 01:24:56;;;;;;;0.40;0.40;;;;;;;11.08;100.00;99072.38;1751921;81;21038;-42
2021/05/19 01:27:23;;;;;;;0.40;0.40;;;;;;;11.03;100.00;99078.52;1746005;81;21042;-47
2021/05/19 01:29:52;;;;;;;1.65;0.42;;;;;;;10.94;100.00;99084.77;1749692;81;21044;-41
2021/05/19 01:32:19;;;;;;;0.42;0.42;;;;;;;10.89;100.00;99078.08;1748331;81;21130;-43
2021/05/19 01:34:46;;;;;;;0.30;0.30;;;;;;;10.83;100.00;99088.08;1750002;81;21607;-46
2021/05/19 01:37:14;;;;;;;0.47;0.47;;;;;;;10.73;100.00;99083.16;1751639;80;21082;-42
2021/05/19 01:39:41;;;;;;;0.85;0.85;;;;;;;10.65;100.00;99093.45;1747526;81;21053;-41
2021/05/19 01:42:09;;;;;;;0.85;0.50;;;;;;;10.59;100.00;99096.09;1751164;81;21011;-47
2021/05/19 01:44:37;;;;;;;0.23;0.23;;;;;;;10.57;100.00;99096.16;1747045;81;21029;-46
2021/05/19 01:47:07;;;;;;;0.20;0.20;;;;;;;10.52;100.00;99092.42;1747078;81;21058;-42
2021/05/19 01:49:42;;;;;;;0.50;0.50;;;;;;;10.47;100.00;99099.95;1749897;81;21043;-46
2021/05/19 01:52:12;;;;;;;1.05;0.40;;;;;;;10.42;100.00;99102.80;1746843;81;21069;-47
2021/05/19 01:54:41;;;;;;;0.72;0.72;;;;;;;10.41;100.00;99108.00;1706135;83;21060;-41
2021/05/19 01:57:08;;;;;;;0.65;0.30;;;;;;;10.34;100.00;99111.19;1736073;81;21038;-46
2021/05/19 01:59:35;;;;;;;1.07;0.62;;;;;;;10.29;100.00;99109.39;1736367;81;21050;-42
2021/05/19 02:02:03;;;;;;;0.10;0.10;;;;;;;10.26;100.00;99114.08;1749347;81;21556;-41
2021/05/19 02:04:31;;;;;;;0.40;0.25;;;;;;;10.26;100.00;99114.61;1747712;81;21635;-43
2021/05/19 02:06:59;;;;;;;2.90;0.72;;;;;;;10.27;100.00;99112.15;1733889;81;21093;-47
2021/05/19 02:09:27;;;;;;;0.20;0.20;;;;;;;10.28;100.00;99116.51;1742962;81;21058;-47
2021/05/19 02:11:56;;;;;;;0.55;0.55;;;;;;;10.35;100.00;99118.81;1748329;80;21552;-43
2021/05/19 02:14:23;;;;;;;1.35;1.00;;;;;;;10.45;100.00;99119.93;1704989;83;21019;-41
2021/05/19 02:16:50;;;;;;;0.40;0.40;;;;;;;10.54;100.00;99116.14;1704524;83;21049;-45
2021/05/19 02:19:16;;;;;;;1.70;1.50;;;;;;;10.63;100.00;99118.94;1749160;81;21619;-47
2021/05/19 02:21:46;;;;;;;0.70;0.70;;;;;;;10.70;100.00;99119.27;1731492;81;21623;-44
2021/05/19 02:24:13;;;;;;;1.65;1.55;;;;;;;10.80;100.00;99125.61;1747074;81;21860;-47
2021/05/19 02:26:41;;;;;;;0.82;0.82;;;;;;;10.89;100.00;99130.56;1748162;81;21598;-47
2021/05/19 02:29:09;;;;;;;1.17;1.17;;;;;;;10.97;100.00;99140.73;1733102;81;21618;-47
2021/05/19 02:31:36;;;;;;;1.77;1.12;;;;;;;11.04;100.00;99137.55;1685657;84;21037;-41
2021/05/19 02:34:04;;;;;;;1.50;1.45;;;;;;;11.11;100.00;99139.28;1743707;81;21069;-46
2021/05/19 02:36:31;;;;;;;2.08;1.22;;;;;;;11.17;100.00;99143.48;1744873;81;21058;-42
2021/05/19 02:38:58;;;;;;;2.12;1.35;;;;;;;11.21;100.00;99136.27;1746751;81;21050;-47
2021/05/19 02:41:25;;;;;;;0.75;0.75;;;;;;;11.25;100.00;99139.99;1747932;81;21023;-42
2021/05/19 02:43:51;;;;;;;1.37;1.22;;;;;;;11.29;100.00;99131.95;1747890;81;21011;-43
2021/05/19 02:46:18;;;;;;;1.02;0.90;;;;;;;11.34;100.00;99134.54;1745560;80;21030;-47
2021/05/19 02:48:45;;;;;;;4.53;1.60;;;;;;;11.38;100.00;99139.63;1750093;81;21547;-42
2021/05/19 02:51:11;;;;;;;0.70;0.70;;;;;;;11.44;100.00;99143.82;1705315;83;21206;-47
2021/05/19 02:53:38;;;;;;;1.72;0.98;;;;;;;11.49;100.00;99138.77;1705124;83;21401;-42
2021/05/19 02:56:06;;;;;;;1.72;0.68;;;;;;;11.53;100.00;99146.03;1747289;81;21614;-47
2021/05/19 02:58:33;;;;;;;0.90;0.90;;;;;;;11.58;100.00;99151.92;1749909;81;21078;-41
2021/05/19 03:01:00;;;;;;;0.70;0.70;;;;;;;11.64;100.00;99153.38;1734160;81;21066;-42
2021/05/19 03:03:27;;;;;;;2.37;1.65;;;;;;;11.69;100.00;99151.86;1759562;79;21011;-47
2021/05/19 03:05:53;;;;;;;1.32;1.02;;;;;;;11.75;100.00;99152.53;1746309;81;21054;-48
2021/05/19 03:08:22;;;;;;;1.07;0.98;;;;;;;11.80;100.00;99153.18;1747954;81;21567;-47
2021/05/19 03:10:48;;;;;;;0.65;0.62;;;;;;;11.86;100.00;99154.40;1749146;81;21090;-42
2021/05/19 03:13:15;;;;;;;1.52;1.42;;;;;;;11.91;100.00;99148.23;1745394;81;21078;-42
2021/05/19 03:15:42;;;;;;;0.93;0.60;;;;;;;11.98;100.00;99144.45;1748080;81;21022;-47
2021/05/19 03:18:08;;;;;;;0.80;0.40;;;;;;;12.05;100.00;99146.16;1747408;81;21388;-42
2021/05/19 03:20:37;;;;;;;4.12;1.65;;;;;;;12.12;100.00;99142.16;1749780;81;21078;-42
2021/05/19 03:23:03;;;;;;;0.85;0.85;;;;;;;12.17;100.00;99135.95;1749835;81;21074;-42
2021/05/19 03:25:30;;;;;;;0.72;0.72;;;;;;;12.21;100.00;99137.46;1751775;81;21134;-42
2021/05/19 03:27:56;;;;;;;1.40;1.10;;;;;;;12.21;100.00;99145.68;1748075;81;21150;-47
2021/05/19 03:30:23;;;;;;;2.87;1.60;;;;;;;12.24;100.00;99143.69;1750289;81;21051;-47
2021/05/19 03:32:50;;;;;;;3.20;1.65;;;;;;;12.32;100.00;99148.35;1748833;81;21326;-47
2021/05/19 03:35:16;;;;;;;3.52;2.10;;;;;;;12.41;100.00;99145.05;1745676;80;21189;-43
2021/05/19 03:37:43;;;;;;;3.12;1.95;;;;;;;12.48;100.00;99154.13;1750017;81;21043;-47
2021/05/19 03:40:13;;;;;;;1.20;1.10;;;;;;;12.55;100.00;99159.94;1703660;83;21031;-41
2021/05/19 03:42:40;;;;;;;1.55;1.42;;;;;;;12.63;100.00;99155.56;1745900;81;21369;-47
2021/05/19 03:45:08;;;;;;;1.30;0.93;;;;;;;12.75;100.00;99156.28;1744826;81;21066;-42
2021/05/19 03:47:35;;;;;;;1.32;1.22;;;;;;;12.83;100.00;99155.45;1744582;81;21097;-47
2021/05/19 03:50:04;;;;;;;1.80;1.50;;;;;;;12.88;100.00;99146.52;1745867;81;21081;-41
2021/05/19 03:52:31;;;;;;;4.47;2.05;;;;;;;12.96;100.00;99144.05;1718845;81;21047;-43
2021/05/19 03:55:00;;;;;;;2.45;1.60;;;;;;;13.04;100.00;99137.75;1733016;82;21453;-42
2021/05/19 03:57:26;;;;;;;1.37;1.30;;;;;;;13.15;100.00;99140.36;1742534;81;21022;-47
2021/05/19 03:59:53;;;;;;;1.45;0.88;;;;;;;13.26;100.00;99140.82;1748471;81;21043;-42
2021/05/19 04:02:19;;;;;;;2.85;1.20;;;;;;;13.37;100.00;99138.54;1690806;82;21071;-47
2021/05/19 04:04:46;;;;;;;2.72;1.12;;;;;;;13.45;100.00;99143.17;1700751;83;21044;-42
2021/05/19 04:07:14;;;;;;;0.82;0.65;;;;;;;13.53;100.00;99140.40;1706081;82;21038;-44
2021/05/19 04:09:42;;;;;;;2.20;1.75;;;;;;;13.62;100.00;99143.08;1710983;83;21071;-42
2021/05/19 04:12:10;;;;;;;1.77;1.02;;;;;;;13.70;100.00;99135.95;1747154;80;21125;-42
2021/05/19 04:14:37;;;;;;;9.98;1.95;;;;;;;13.75;100.00;99126.16;1745586;81;21086;-44
2021/05/19 04:17:03;;;;;;;1.67;1.15;;;;;;;13.82;100.00;99125.61;1746858;81;21075;-43
2021/05/19 04:19:30;;;;;;;2.08;1.47;;;;;;;13.90;100.00;99130.26;1734802;81;21615;-48
2021/05/19 04:21:59;;;;;;;1.45;1.12;;;;;;;13.98;100.00;99132.93;1706848;82;21095;-42
2021/05/19 04:24:26;;;;;;;1.22;0.90;;;;;;;14.05;100.00;99131.03;1709326;81;21081;-47
2021/05/19 04:26:52;;;;;;;1.95;1.25;;;;;;;14.11;100.00;99137.92;1732730;80;21050;-42
2021/05/19 04:29:18;;;;;;;1.50;1.40;;;;;;;14.18;100.00;99136.81;1749135;81;21019;-46
2021/05/19 04:31:45;;;;;;;1.87;1.02;;;;;;;14.26;100.00;99141.20;1749529;81;21536;-46
2021/05/19 04:34:11;;;;;;;3.25;1.27;;;;;;;14.34;100.00;99143.07;1742581;81;21491;-42
2021/05/19 04:36:38;;;;;;;1.30;1.15;;;;;;;14.40;100.00;99142.54;1728035;81;21121;-47
2021/05/19 04:39:05;;;;;;;1.55;0.93;;;;;;;14.43;100.00;99137.52;1716988;82;21102;-46
2021/05/19 04:41:34;;;;;;;1.52;1.42;;;;;;;14.39;100.00;99139.57;1728329;82;21070;-46
2021/05/19 04:44:00;;;;;;;0.68;0.60;;;;;;;14.37;100.00;99142.42;1747977;81;21070;-41
2021/05/19 04:46:27;;;;;;;1.85;1.47;;;;;;;14.37;100.00;99141.05;1745463;81;21567;-47
2021/05/19 04:48:59;;;;;;;1.42;0.75;;;;;;;14.43;100.00;99151.26;1744798;81;21631;-47
2021/05/19 04:51:23;;;;;;;1.82;1.60;;;;;;;14.50;100.00;99148.77;1735192;81;21563;-47
2021/05/19 04:53:49;;;;;;;2.70;1.17;;;;;;;14.59;100.00;99154.45;1746141;81;21018;-46
2021/05/19 04:56:16;;;;;;;2.08;1.12;;;;;;;14.71;100.00;99151.50;1743668;81;21008;-47
2021/05/19 04:58:42;;;;;;;2.75;1.35;;;;;;;14.86;100.00;99149.52;1742856;81;21571;-47
2021/05/19 05:01:09;;;;;;;2.25;2.00;;;;;;;14.98;100.00;99156.39;1695690;82;21068;-42
2021/05/19 05:03:35;;;;;;;1.55;1.25;;;;;;;15.10;100.00;99157.58;1740443;80;21365;-44
2021/05/19 05:06:04;;;;;;;1.22;1.10;;;;;;;15.16;100.00;99161.73;1700120;82;21047;-42
2021/05/19 05:08:31;;;;;;;2.62;1.92;;;;;;;15.18;100.00;99156.66;1728306;81;21224;-43
2021/05/19 05:10:57;;;;;;;1.72;1.62;;;;;;;15.16;100.00;99164.48;1735170;80;21200;-41
2021/05/19 05:13:24;;;;;;;3.65;1.65;;;;;;;15.10;100.00;99179.58;1731874;79;21081;-41
2021/05/19 05:15:51;;;;;;;1.32;1.22;;;;;;;15.08;100.00;99179.12;1730932;81;21595;-47
2021/05/19 05:18:17;;;;;;;3.33;1.45;;;;;;;15.11;100.00;99183.93;1732047;81;21070;-47
2021/05/19 05:20:44;;;;;;;4.70;3.12;;;;;;;15.12;100.00;99189.11;1728167;81;21066;-43
2021/05/19 05:23:12;;;;;;;3.98;2.72;;;;;;;15.15;100.00;99188.99;1734068;81;21033;-47
2021/05/19 05:25:38;;;;;;;3.27;2.83;;;;;;;15.14;100.00;99190.15;1702565;82;21574;-47
2021/05/19 05:28:05;;;;;;;4.17;2.45;;;;;;;15.12;100.00;99193.23;1717718;82;21034;-47
2021/05/19 05:30:31;;;;;;;2.92;2.52;;;;;;;15.12;100.00;99192.44;1714759;82;21567;-47
2021/05/19 05:32:58;;;;;;;2.08;1.65;;;;;;;15.15;100.00;99191.75;1679942;84;21031;-42
2021/05/19 05:35:24;;;;;;;6.95;1.98;;;;;;;15.19;100.00;99188.55;1675891;84;21060;-47
2021/05/19 05:37:51;;;;;;;10.78;4.08;;;;;;;15.26;100.00;99187.42;1678744;84;21007;-47
2021/05/19 05:40:17;;;;;;;7.03;3.85;;;;;;;15.37;100.00;99187.78;1719178;82;21212;-47
2021/05/19 05:42:44;;;;;;;2.35;1.98;;;;;;;15.46;100.00;99186.53;1717251;82;21062;-47
2021/05/19 05:45:12;;;;;;;8.15;3.10;;;;;;;15.61;100.00;99180.13;1737216;81;22041;-41
2021/05/19 05:47:38;;;;;;;4.62;2.58;;;;;;;15.78;100.00;99177.16;1739824;81;21081;-47
2021/05/19 05:50:06;;;;;;;2.45;1.57;;;;;;;16.00;100.00;99186.91;1744737;81;21565;-42
2021/05/19 05:52:32;;;;;;;1.55;1.45;;;;;;;16.25;99.62;99181.35;1732930;81;21101;-48
2021/05/19 05:55:00;;;;;;;1.07;0.72;;;;;;;16.46;98.14;99179.20;1742839;81;21031;-42
2021/05/19 05:57:26;;;;;;;1.72;1.35;;;;;;;16.68;97.56;99183.38;1748042;81;21050;-42
2021/05/19 05:59:53;;;;;;;3.80;2.45;;;;;;;16.85;96.09;99187.03;1674615;84;21033;-41
2021/05/19 06:02:19;;;;;;;4.67;2.40;;;;;;;16.90;93.15;99189.53;1705824;83;21055;-47
2021/05/19 06:04:46;;;;;;;2.65;1.62;;;;;;;16.87;91.32;99197.14;1714147;82;21051;-47
2021/05/19 06:07:12;;;;;;;1.37;1.27;;;;;;;16.88;90.10;99189.08;1718553;82;21106;-43
2021/05/19 06:09:39;;;;;;;3.67;1.85;;;;;;;17.01;88.61;99187.85;1727556;81;21011;-43
2021/05/19 06:12:06;;;;;;;1.05;0.53;;;;;;;17.19;88.54;99191.11;1740779;81;21066;-41
2021/05/19 06:14:32;;;;;;;1.65;0.70;;;;;;;17.35;87.55;99196.63;1724278;81;21038;-47
2021/05/19 06:17:02;;;;;;;1.10;0.88;;;;;;;17.43;87.34;99201.17;1742873;81;21060;-47
2021/05/19 06:19:27;;;;;;;2.12;1.57;;;;;;;17.45;85.74;99201.63;1725088;81;21056;-42
2021/05/19 06:21:54;;;;;;;2.40;1.15;;;;;;;17.49;85.29;99201.14;1743293;81;21635;-47
2021/05/19 06:24:20;;;;;;;3.40;2.60;;;;;;;17.51;84.63;99203.56;1738945;81;21030;-47
2021/05/19 06:26:47;;;;;;;3.75;1.65;;;;;;;17.52;84.31;99204.56;1729569;82;20932;-42
2021/05/19 06:29:15;;;;;;;2.15;1.72;;;;;;;17.54;84.28;99204.22;1722536;81;21034;-41
2021/05/19 06:31:41;;;;;;;2.62;1.10;;;;;;;17.58;83.66;99205.92;1746887;81;21046;-47
2021/05/19 06:34:07;;;;;;;2.47;1.87;;;;;;;17.59;81.93;99213.03;1749800;81;21050;-47
2021/05/19 06:36:34;;;;;;;1.47;1.37;;;;;;;17.51;80.75;99214.02;1731018;81;20914;-42
2021/05/19 06:39:00;;;;;;;1.65;1.05;;;;;;;17.50;81.85;99215.16;1704925;83;20998;-41
2021/05/19 06:41:27;;;;;;;2.05;1.62;;;;;;;17.52;81.04;99214.23;1710291;83;21074;-43
2021/05/19 06:43:54;;;;;;;3.80;1.98;;;;;;;17.52;81.21;99212.85;1702559;83;21039;-43
2021/05/19 06:46:22;;;;;;;1.80;1.42;;;;;;;17.56;82.02;99217.10;1703250;83;21024;-47
2021/05/19 06:48:49;;;;;;;2.02;1.22;;;;;;;17.63;82.68;99218.08;1685760;84;21028;-42
2021/05/19 06:51:15;;;;;;;4.08;1.65;;;;;;;17.75;82.57;99214.98;1750627;81;21713;-47
2021/05/19 06:53:43;;;;;;;2.80;2.33;;;;;;;17.83;80.82;99211.29;1680064;84;21091;-47
2021/05/19 06:56:12;;;;;;;5.78;2.55;;;;;;;17.90;81.12;99215.58;1749619;81;21524;-41
2021/05/19 06:58:38;;;;;;;2.95;2.15;;;;;;;18.01;79.55;99220.79;1686620;82;21678;-47
2021/05/19 07:01:05;;;;;;;2.80;1.72;;;;;;;18.14;79.31;99224.83;1757068;80;21036;-47
2021/05/19 07:03:33;;;;;;;0.75;0.75;;;;;;;18.24;79.57;99218.73;1684825;83;21343;-41
2021/05/19 07:05:59;;;;;;;1.20;1.00;;;;;;;18.33;78.13;99229.02;1700692;84;21051;-42
2021/05/19 07:08:25;;;;;;;0.57;0.57;;;;;;;18.49;78.18;99223.42;1699896;84;21581;-47
2021/05/19 07:10:52;;;;;;;4.00;1.30;;;;;;;18.65;78.69;99228.92;1701170;84;21044;-47
2021/05/19 07:13:18;;;;;;;1.12;0.90;;;;;;;18.89;78.40;99225.06;1736337;81;21070;-41
2021/05/19 07:15:51;;;;;;;1.50;0.70;;;;;;;18.89;78.40;99225.06;1709854;82;21588;-43
2021/05/19 07:18:15;;;;;;;0.65;0.65;;;;;;;19.07;78.95;99229.00;1716319;82;21165;-44
2021/05/19 07:20:43;;;;;;;0.85;0.70;;;;;;;19.29;78.08;99232.19;1727224;82;21576;-47
2021/05/19 07:23:09;;;;;;;2.35;1.25;;;;;;;19.54;76.58;99235.41;1717277;82;21086;-47
2021/05/19 07:25:36;;;;;;;1.00;0.85;;;;;;;19.71;72.84;99237.70;1722739;82;21039;-42
2021/05/19 07:28:04;;;;;;;0.65;0.60;;;;;;;19.69;71.23;99238.66;1716661;82;21054;-47
2021/05/19 07:30:31;;;;;;;1.87;0.80;;;;;;;19.73;72.21;99242.30;1714491;82;21075;-47
2021/05/19 07:33:00;;;;;;;0.72;0.70;;;;;;;19.88;71.71;99242.52;1712382;82;21018;-42
2021/05/19 07:35:26;;;;;;;2.45;1.55;;;;;;;20.01;71.42;99243.93;1721460;82;21015;-47
2021/05/19 07:37:54;;;;;;;0.42;0.42;;;;;;;20.10;71.61;99248.64;1727572;82;21090;-41
2021/05/19 07:40:22;;;;;;;0.60;0.60;;;;;;;20.06;71.13;99257.48;1725405;82;21051;-47
2021/05/19 07:42:51;;;;;;;0.20;0.20;;;;;;;20.11;70.20;99255.77;1742572;81;21089;-41
2021/05/19 07:45:18;;;;;;;0.42;0.42;;;;;;;20.15;69.73;99260.80;1740335;81;21158;-41
2021/05/19 07:47:44;;;;;;;0.40;0.30;;;;;;;20.13;68.22;99268.68;1747356;81;21041;-46
2021/05/19 07:50:12;;;;;;;1.77;0.55;;;;;;;19.98;68.21;99268.25;1683867;84;21021;-42
2021/05/19 07:52:39;;;;;;;0.57;0.57;;;;;;;19.55;70.14;99273.80;1750152;80;21077;-41
2021/05/19 07:55:11;;;;;;;0.65;0.55;;;;;;;19.55;70.14;99273.80;1746027;81;21075;-41
2021/05/19 08:00:17;;;;;;;0.78;0.60;;;;;;;19.56;69.94;99281.55;1741808;81;21150;-43
2021/05/19 08:02:42;;;;;;;1.67;1.42;;;;;;;19.61;70.46;99286.79;1741668;81;21022;-46
2021/05/19 08:05:11;;;;;;;1.15;1.05;;;;;;;19.70;70.48;99288.74;1734008;82;21000;-46
2021/05/19 08:07:37;;;;;;;1.22;1.12;;;;;;;19.74;68.56;99284.08;1743142;81;21070;-46
2021/05/19 08:10:05;;;;;;;1.02;0.62;;;;;;;19.70;68.59;99287.95;1743347;81;21981;-46
2021/05/19 08:12:32;;;;;;;1.65;1.40;;;;;;;19.51;70.01;99286.81;1743215;81;21020;-46
2021/05/19 08:14:59;;;;;;;1.72;1.57;;;;;;;19.29;70.09;99293.91;1739633;81;21016;-46
2021/05/19 08:17:25;;;;;;;2.47;1.70;;;;;;;18.96;71.31;99296.39;1742607;81;21147;-46
2021/05/19 08:19:52;;;;;;;1.72;1.42;;;;;;;18.85;73.35;99291.43;1742147;81;21580;-44
2021/05/19 08:22:18;;;;;;;1.77;1.30;;;;;;;19.02;75.25;99289.41;1746681;81;21094;-47
2021/05/19 08:24:45;;;;;;;2.40;1.32;;;;;;;19.38;75.76;99291.48;1744944;81;21087;-47
2021/05/19 08:27:11;;;;;;;3.75;2.00;;;;;;;19.54;73.56;99289.43;1739827;82;21050;-40
2021/05/19 08:29:38;;;;;;;1.72;1.32;;;;;;;19.39;71.39;99297.27;1743466;81;21619;-46
2021/05/19 08:32:06;;;;;;;2.40;1.15;;;;;;;19.18;72.84;99292.09;1734071;82;21017;-46
2021/05/19 08:34:34;;;;;;;1.65;1.42;;;;;;;19.14;73.62;99294.80;1733836;82;21007;-42
2021/05/19 08:37:00;;;;;;;0.78;0.78;;;;;;;19.04;73.93;99302.28;1734421;82;21552;-42
2021/05/19 08:39:26;;;;;;;0.75;0.70;;;;;;;19.04;75.38;99300.90;1745682;82;21027;-41
2021/05/19 08:41:53;;;;;;;0.85;0.85;;;;;;;19.09;73.22;99306.17;1715771;81;21053;-46
2021/05/19 08:44:20;;;;;;;1.12;0.85;;;;;;;19.07;72.14;99300.19;1742825;81;21051;-42
2021/05/19 08:46:48;;;;;;;1.98;1.10;;;;;;;19.01;75.78;99287.79;1742053;81;21027;-41
2021/05/19 08:49:16;;;;;;;1.55;0.78;;;;;;;19.01;75.78;99287.79;1719827;81;21616;-40
2021/05/19 08:51:43;;;;;;;0.30;0.30;;;;;;;19.01;73.37;99294.13;1726415;81;21087;-40
2021/05/19 08:54:10;;;;;;;1.85;1.27;;;;;;;18.79;74.00;99292.90;1716947;82;21095;-40
2021/05/19 08:56:39;;;;;;;7.12;0.90;;;;;;;18.53;73.85;99360.45;1724322;82;21080;-46
2021/05/19 08:59:06;;;;;;;0.55;0.47;;;;;;;18.13;74.16;99297.88;1729033;81;21025;-46
2021/05/19 09:01:42;;;;;;;0.30;0.30;;;;;;;17.87;75.98;99304.72;1748211;80;21021;-40
2021/05/19 09:04:19;;;;;;;0.57;0.57;;;;;;;17.71;77.66;99297.00;1725339;81;21056;-46
2021/05/19 09:06:55;;;;;;;0.20;0.20;;;;;;;17.69;78.76;99293.78;1743072;81;21065;-43
2021/05/19 09:09:29;;;;;;;0.30;0.20;;;;;;;17.75;79.25;99297.87;1737949;81;21618;-40
2021/05/19 09:12:13;;;;;;;0.40;0.37;;;;;;;17.83;79.90;99301.89;1746725;81;21062;-42
2021/05/19 09:15:02;;;;;;;0.10;0.10;;;;;;;17.97;79.76;99302.02;1716218;82;21057;-41
2021/05/19 09:17:33;;;;;;;0.50;0.50;;;;;;;18.07;79.45;99303.44;1720598;82;21038;-46
2021/05/19 09:20:10;;;;;;;0.20;0.20;;;;;;;18.18;79.43;99303.12;1678492;84;21592;-41
2021/05/19 09:22:46;;;;;;;0.20;0.20;;;;;;;18.26;78.89;99306.28;1718162;83;21074;-46
2021/05/19 09:25:29;;;;;;;0.40;0.40;;;;;;;18.33;78.68;99306.45;1722455;82;21562;-43
2021/05/19 09:27:58;;;;;;;0.68;0.68;;;;;;;18.34;78.43;99301.13;1720579;83;21133;-41
2021/05/19 09:30:39;;;;;;;1.50;1.35;;;;;;;18.34;77.58;99303.89;1661297;84;21566;-40
2021/05/19 09:33:23;;;;;;;0.20;0.20;;;;;;;18.33;76.98;99299.53;1704208;83;21166;-40
2021/05/19 09:36:15;;;;;;;0.20;0.17;;;;;;;18.34;76.76;99308.04;1747883;81;21547;-41
2021/05/19 09:38:47;;;;;;;0.40;0.40;;;;;;;18.33;76.86;99307.83;1747109;81;21014;-40
2021/05/19 09:41:26;;;;;;;0.20;0.20;;;;;;;18.33;77.40;99314.75;1733954;82;21513;-41
2021/05/19 09:43:55;;;;;;;0.05;0.05;;;;;;;18.41;77.34;99313.74;1745541;81;20972;-46
2021/05/19 09:49:10;;;;;;;0.30;0.30;;;;;;;18.59;77.19;99312.76;1741188;81;21082;-41
2021/05/19 09:51:37;;;;;;;0.53;0.30;;;;;;;18.59;77.19;99312.76;1723089;81;21096;-41
2021/05/19 09:54:05;;;;;;;0.40;0.40;;;;;;;18.65;77.05;99311.92;1743903;81;21619;-46
2021/05/19 09:56:32;;;;;;;0.20;0.20;;;;;;;18.61;76.69;99315.17;1743417;81;21059;-42
2021/05/19 09:58:58;;;;;;;0.37;0.37;;;;;;;18.51;76.95;99315.16;1717525;81;21058;-45
2021/05/19 10:01:25;;;;;;;0.30;0.30;;;;;;;18.42;77.11;99316.75;1715201;82;21568;-41
2021/05/19 10:03:52;;;;;;;2.50;0.93;;;;;;;18.38;77.52;99319.20;1677976;84;21056;-41
2021/05/19 10:06:25;;;;;;;0.35;0.35;;;;;;;18.36;78.37;99301.58;1710052;81;21053;-41
2021/05/19 10:08:50;;;;;;;0.53;0.53;;;;;;;18.36;78.37;99301.58;1680760;84;21565;-41
2021/05/19 10:11:17;;;;;;;0.45;0.45;;;;;;;18.34;77.73;99310.80;1744559;81;21052;-41
2021/05/19 10:13:45;;;;;;;1.20;0.68;;;;;;;18.29;77.75;99308.31;1745065;81;21614;-41
2021/05/19 10:16:16;;;;;;;1.05;0.95;;;;;;;18.23;78.46;99309.77;1749125;81;21101;-43
2021/05/19 10:18:52;;;;;;;1.57;0.68;;;;;;;18.17;79.22;99309.22;1739355;81;21052;-40
2021/05/19 10:21:18;;;;;;;1.10;1.00;;;;;;;18.13;79.61;99314.46;1724638;81;21458;-41
2021/05/19 10:24:07;;;;;;;1.52;0.50;;;;;;;18.13;79.61;99314.46;1747550;81;21500;-46
2021/05/19 10:27:01;;;;;;;0.57;0.40;;;;;;;18.10;80.43;99318.74;1748877;81;21049;-45
2021/05/19 10:29:55;;;;;;;1.60;1.50;;;;;;;18.07;81.55;99322.78;1747563;81;21065;-46
2021/05/19 10:32:33;;;;;;;1.45;0.50;;;;;;;18.01;81.63;99330.55;1721718;82;21077;-42
2021/05/19 10:35:02;;;;;;;0.88;0.55;;;;;;;17.89;81.95;99325.91;1744846;81;21078;-40
2021/05/19 10:37:35;;;;;;;4.33;0.95;;;;;;;17.82;83.74;99336.77;1676564;84;21049;-41
2021/05/19 10:40:20;;;;;;;0.47;0.47;;;;;;;17.78;83.48;99327.57;1748588;81;21097;-41
2021/05/19 10:43:00;;;;;;;0.45;0.30;;;;;;;17.71;83.75;99328.18;1745502;81;21059;-46
2021/05/19 10:45:27;;;;;;;0.65;0.65;;;;;;;17.72;82.71;99326.21;1739594;81;21044;-46
2021/05/19 10:47:55;;;;;;;0.20;0.20;;;;;;;17.82;84.39;99316.05;1742111;81;21039;-42
2021/05/19 10:50:36;;;;;;;0.20;0.20;;;;;;;18.03;84.67;99315.22;1743388;81;21533;-42
2021/05/19 10:58:52;;;;;;;0.72;0.70;;;;;;;18.92;81.77;99315.70;1715411;82;21707;-42
2021/05/19 11:01:39;;;;;;;2.52;1.57;;;;;;;19.13;81.14;99305.05;1721094;82;21629;-41
2021/05/19 11:04:21;;;;;;;1.87;1.37;;;;;;;19.29;79.81;99277.88;1741761;81;21085;-41
2021/05/19 11:07:04;;;;;;;0.60;0.60;;;;;;;19.39;78.91;99293.11;1747524;81;21568;-47
2021/05/19 11:09:36;;;;;;;0.50;0.50;;;;;;;19.58;78.19;99288.09;1716736;82;21038;-41
2021/05/19 11:12:26;;;;;;;1.05;0.50;;;;;;;19.84;75.63;99294.34;1720292;82;21599;-40
2021/05/19 11:15:03;;;;;;;0.30;0.30;;;;;;;20.11;73.36;99285.48;1746902;81;21046;-43
2021/05/19 11:17:54;;;;;;;0.45;0.20;;;;;;;20.36;72.26;99285.86;1744609;81;21638;-42
2021/05/19 11:19:59;;;;;;;0.10;0.10;;;;;;;20.53;70.37;99285.92;1735173;81;21554;-41
2021/05/19 11:22:26;;;;;;;1.02;0.60;;;;;;;20.82;70.54;99290.72;1736195;81;21034;-46
2021/05/19 11:24:58;;;;;;;0.28;0.28;;;;;;;21.09;68.62;99284.28;1750635;81;21050;-47
2021/05/19 11:27:30;;;;;;;0.10;0.10;;;;;;;21.30;66.54;99291.48;1749486;81;21098;-42
2021/05/19 11:29:57;;;;;;;0.30;0.15;;;;;;;21.54;60.98;99283.81;1732227;81;21650;-42
2021/05/19 11:32:27;;;;;;;0.72;0.40;;;;;;;21.89;60.34;99291.71;1722352;82;21082;-43
2021/05/19 11:35:18;;;;;;;0.25;0.25;;;;;;;22.18;60.23;99282.19;1714600;82;21003;-41
2021/05/19 11:37:59;;;;;;;0.25;0.20;;;;;;;22.49;59.55;99282.24;1728719;82;21047;-47
2021/05/19 11:40:49;;;;;;;0.20;0.20;;;;;;;22.84;57.46;99278.84;1714375;82;21078;-42
2021/05/19 11:43:18;;;;;;;0.10;0.10;;;;;;;23.22;57.01;99282.23;1730048;82;21089;-41
2021/05/19 11:45:52;;;;;;;0.82;0.33;;;;;;;23.55;55.04;99281.11;1724770;82;21761;-41
2021/05/19 11:48:20;;;;;;;0.55;0.55;;;;;;;23.75;54.20;99273.80;1734557;82;20995;-47